Terminal Aerodrome Forecast
Issued by NWS Duluth, MN

Home | Current Version | Previous Version | Text Only | Print | Product List | Glossary On
Versions: 1 2 3 4 5 6 7 8 9 10 11 12 13 14 15 16 17 18 19 20 21 22
324
FTUS43 KDLH 241428 AAB
TAFDLH
TAF AMD
KDLH 241428Z 2414/2512 07006KT P6SM SCT020 SCT050
      TEMPO 2415/2417 5SM BR BKN022
     FM241900 16006KT P6SM SCT035 SCT060
     FM250300 08010KT 5SM BR SCT005 BKN015=

USA.gov is the U.S. government's official web portal to all federal, state and local government web resources and services.